Time;durP1;ratioP1;P1;durP2;ratioP2;P2;SDS_P1;SDS_P2;PMS_P1;PMS_P2;Temp;Humidity;BMP_temperature;BMP_pressure;BME280_temperature;BME280_humidity;BME280_pressure;Samples;Min_cycle;Max_cycle;Signal;HPM_P1;HPM_P2
2022/05/30 00:00:31;;;;;;;1.30;1.20;;;;;;;;;;8307150;28;20528;-58
2022/05/30 00:04:31;;;;;;;1.27;1.17;;;;;;;;;;8307356;28;20099;-57
2022/05/30 00:08:31;;;;;;;1.92;1.10;;;;;;;;;;8306271;28;20151;-57
2022/05/30 00:12:31;;;;;;;1.13;1.10;;;;;;;;;;8307754;28;20029;-57
2022/05/30 00:16:32;;;;;;;2.67;1.33;;;;;;;;;;8305801;28;20537;-57
2022/05/30 00:20:32;;;;;;;1.50;1.40;;;;;;;;;;8308357;28;20029;-57
2022/05/30 00:24:32;;;;;;;1.50;1.40;;;;;;;;;;8306831;28;20112;-57
2022/05/30 00:28:33;;;;;;;1.60;1.50;;;;;;;;;;8306180;28;20032;-57
2022/05/30 00:32:34;;;;;;;2.13;1.40;;;;;;;;;;8306325;28;20055;-57
2022/05/30 00:36:34;;;;;;;1.65;1.55;;;;;;;;;;8306422;28;20147;-57
2022/05/30 00:40:35;;;;;;;1.63;1.30;;;;;;;;;;8307938;28;20754;-56
2022/05/30 00:44:36;;;;;;;3.42;1.50;;;;;;;;;;8304805;28;20025;-57
2022/05/30 00:48:38;;;;;;;1.70;1.60;;;;;;;;;;8306285;28;20037;-57
2022/05/30 00:52:41;;;;;;;1.55;1.30;;;;;;;;;;8305449;28;20468;-57
2022/05/30 00:56:45;;;;;;;2.20;1.70;;;;;;;;;;8307181;28;20037;-58
2022/05/30 01:00:45;;;;;;;2.25;1.83;;;;;;;;;;8304381;28;20061;-63
2022/05/30 01:09:09;;;;;;;2.13;1.63;;;;;;;;;;8305605;28;20826;-57
2022/05/30 01:13:15;;;;;;;2.10;1.90;;;;;;;;;;8286904;28;20018;-57
2022/05/30 01:17:16;;;;;;;3.78;2.15;;;;;;;;;;8307674;28;20041;-57
2022/05/30 01:21:29;;;;;;;1.85;1.75;;;;;;;;;;8310840;28;20106;-57
2022/05/30 01:26:08;;;;;;;2.20;2.00;;;;;;;;;;8311281;28;20036;-57
2022/05/30 01:30:10;;;;;;;2.00;1.90;;;;;;;;;;8261120;28;20043;-58
2022/05/30 01:34:10;;;;;;;1.95;1.85;;;;;;;;;;8310953;28;20794;-58
2022/05/30 01:38:11;;;;;;;1.80;1.70;;;;;;;;;;8307859;28;20090;-57
2022/05/30 01:42:11;;;;;;;2.63;2.28;;;;;;;;;;8310235;28;20357;-58
2022/05/30 01:46:13;;;;;;;2.75;2.10;;;;;;;;;;8310312;28;20037;-57
2022/05/30 01:50:14;;;;;;;2.60;2.03;;;;;;;;;;8312107;28;20095;-58
2022/05/30 01:54:14;;;;;;;2.55;2.35;;;;;;;;;;8312766;28;20029;-57
2022/05/30 01:58:14;;;;;;;3.63;2.22;;;;;;;;;;8308387;28;20993;-59
2022/05/30 02:02:14;;;;;;;3.33;2.35;;;;;;;;;;8310527;28;20029;-57
2022/05/30 02:06:15;;;;;;;2.40;2.20;;;;;;;;;;8311856;28;21128;-57
2022/05/30 02:10:15;;;;;;;2.20;2.00;;;;;;;;;;8311553;28;20049;-57
2022/05/30 02:14:16;;;;;;;4.43;2.63;;;;;;;;;;8310415;28;20093;-64
2022/05/30 02:18:16;;;;;;;2.25;2.05;;;;;;;;;;8308499;28;20046;-58
2022/05/30 02:22:18;;;;;;;2.70;2.10;;;;;;;;;;8310194;28;20069;-57
2022/05/30 02:26:19;;;;;;;3.83;2.63;;;;;;;;;;8310403;28;20025;-57
2022/05/30 02:30:19;;;;;;;3.22;2.90;;;;;;;;;;8309973;28;20068;-56
2022/05/30 02:38:38;;;;;;;2.95;2.75;;;;;;;;;;8312275;28;20072;-57
2022/05/30 02:42:39;;;;;;;3.47;2.92;;;;;;;;;;8307798;28;20033;-58
2022/05/30 02:46:40;;;;;;;3.28;2.97;;;;;;;;;;8307858;28;20106;-57
2022/05/30 02:50:40;;;;;;;3.50;2.92;;;;;;;;;;8306700;28;20060;-57
2022/05/30 02:54:40;;;;;;;3.15;2.83;;;;;;;;;;8308519;28;20064;-56
2022/05/30 02:58:42;;;;;;;3.38;2.85;;;;;;;;;;8310318;28;20029;-58
2022/05/30 03:02:42;;;;;;;4.50;2.70;;;;;;;;;;8308236;28;20046;-56
2022/05/30 03:06:43;;;;;;;4.03;3.22;;;;;;;;;;8309456;28;20157;-57
2022/05/30 03:10:43;;;;;;;3.85;3.45;;;;;;;;;;8309166;28;20040;-57
2022/05/30 03:14:43;;;;;;;3.63;3.20;;;;;;;;;;8308631;28;20029;-61
2022/05/30 03:18:44;;;;;;;5.05;4.43;;;;;;;;;;8307665;28;20346;-57
2022/05/30 03:22:44;;;;;;;4.65;4.03;;;;;;;;;;8307476;28;20021;-56
2022/05/30 03:26:44;;;;;;;4.47;4.07;;;;;;;;;;8307387;28;20858;-56
2022/05/30 03:30:44;;;;;;;5.05;4.53;;;;;;;;;;8307780;28;20041;-57
2022/05/30 03:34:45;;;;;;;4.68;3.90;;;;;;;;;;8307885;28;20032;-56
2022/05/30 03:38:45;;;;;;;5.22;4.72;;;;;;;;;;8306972;28;20025;-57
2022/05/30 03:42:45;;;;;;;5.57;4.47;;;;;;;;;;8305313;28;20044;-57
2022/05/30 03:46:45;;;;;;;6.85;5.18;;;;;;;;;;8306238;28;20041;-56
2022/05/30 03:50:46;;;;;;;7.05;4.35;;;;;;;;;;8309815;28;20028;-56
2022/05/30 03:54:46;;;;;;;7.22;5.57;;;;;;;;;;8307501;28;20021;-56
2022/05/30 03:58:46;;;;;;;7.45;5.18;;;;;;;;;;8306068;28;21642;-56
2022/05/30 04:02:50;;;;;;;6.72;6.07;;;;;;;;;;8303966;28;20145;-57
2022/05/30 04:06:50;;;;;;;6.60;5.50;;;;;;;;;;8306841;28;20026;-57
2022/05/30 04:10:50;;;;;;;6.60;5.55;;;;;;;;;;8305780;28;20017;-57
2022/05/30 04:14:54;;;;;;;7.40;5.68;;;;;;;;;;8306508;28;20029;-57
2022/05/30 04:18:54;;;;;;;7.18;5.80;;;;;;;;;;8303547;28;20037;-58
2022/05/30 04:22:54;;;;;;;6.88;5.25;;;;;;;;;;8304664;28;20021;-58
2022/05/30 04:26:54;;;;;;;7.45;5.70;;;;;;;;;;8307154;28;20585;-59
2022/05/30 04:30:55;;;;;;;8.88;6.35;;;;;;;;;;8305841;28;20757;-56
2022/05/30 04:34:55;;;;;;;7.20;6.15;;;;;;;;;;8306639;28;20942;-56
2022/05/30 04:38:55;;;;;;;6.18;5.57;;;;;;;;;;8304458;28;20088;-58
2022/05/30 04:42:58;;;;;;;7.43;5.63;;;;;;;;;;8301037;28;20029;-56
2022/05/30 04:46:58;;;;;;;5.85;4.72;;;;;;;;;;8307335;28;20267;-57
2022/05/30 04:50:58;;;;;;;6.15;5.43;;;;;;;;;;8308604;28;20018;-57
2022/05/30 04:54:59;;;;;;;5.50;5.00;;;;;;;;;;8313693;28;20024;-56
2022/05/30 04:58:59;;;;;;;6.28;4.88;;;;;;;;;;8313182;28;20037;-57
2022/05/30 05:02:59;;;;;;;5.22;4.72;;;;;;;;;;8312015;28;20040;-57
2022/05/30 05:07:01;;;;;;;9.25;5.18;;;;;;;;;;8312967;28;20052;-56
2022/05/30 05:11:15;;;;;;;8.13;5.32;;;;;;;;;;8313070;28;20033;-57
2022/05/30 05:15:15;;;;;;;4.97;4.55;;;;;;;;;;8310833;28;20030;-59
2022/05/30 05:19:15;;;;;;;6.25;5.00;;;;;;;;;;8311284;28;20487;-57
2022/05/30 05:23:16;;;;;;;5.18;4.65;;;;;;;;;;8311141;28;20040;-57
2022/05/30 05:27:17;;;;;;;6.13;4.68;;;;;;;;;;8314125;28;20163;-59
2022/05/30 05:31:27;;;;;;;5.00;4.50;;;;;;;;;;8310367;28;20044;-59
2022/05/30 05:35:28;;;;;;;4.57;3.65;;;;;;;;;;8312582;28;20168;-58
2022/05/30 05:39:28;;;;;;;6.40;3.75;;;;;;;;;;8311468;28;20089;-58
2022/05/30 05:43:28;;;;;;;6.60;4.40;;;;;;;;;;8313666;28;20044;-59
2022/05/30 05:47:29;;;;;;;6.38;4.68;;;;;;;;;;8310529;28;20041;-58
2022/05/30 05:51:31;;;;;;;3.97;3.47;;;;;;;;;;8310305;28;20022;-58
2022/05/30 05:55:32;;;;;;;3.58;3.05;;;;;;;;;;8308400;28;20542;-58
2022/05/30 05:59:32;;;;;;;4.53;3.20;;;;;;;;;;8312605;28;20029;-59
2022/05/30 06:03:32;;;;;;;4.83;2.50;;;;;;;;;;8311798;28;20041;-58
2022/05/30 06:07:33;;;;;;;2.88;2.10;;;;;;;;;;8308485;28;20052;-58
2022/05/30 06:11:33;;;;;;;2.65;2.00;;;;;;;;;;8307838;28;20038;-58
2022/05/30 06:15:34;;;;;;;4.78;2.00;;;;;;;;;;8308844;28;20405;-58
2022/05/30 06:19:34;;;;;;;2.65;1.75;;;;;;;;;;8311759;28;20143;-62
2022/05/30 06:23:34;;;;;;;2.23;1.57;;;;;;;;;;8312189;28;20040;-58
2022/05/30 06:27:34;;;;;;;4.57;2.20;;;;;;;;;;8308929;28;20029;-58
2022/05/30 06:31:35;;;;;;;2.37;2.10;;;;;;;;;;8306131;28;20846;-59
2022/05/30 06:35:38;;;;;;;2.05;1.75;;;;;;;;;;8309068;28;20193;-58
2022/05/30 06:39:38;;;;;;;3.25;2.00;;;;;;;;;;8310683;28;20044;-62
2022/05/30 06:43:39;;;;;;;2.87;2.13;;;;;;;;;;8307441;28;20426;-58
2022/05/30 06:47:39;;;;;;;3.10;2.60;;;;;;;;;;8308599;28;20684;-58
2022/05/30 06:51:40;;;;;;;3.92;2.20;;;;;;;;;;8308957;28;20478;-59
2022/05/30 06:55:40;;;;;;;3.75;2.38;;;;;;;;;;8308830;28;20147;-59
2022/05/30 06:59:40;;;;;;;3.63;2.50;;;;;;;;;;8306143;28;20140;-59
2022/05/30 07:03:40;;;;;;;3.08;2.45;;;;;;;;;;8308987;28;20025;-58
2022/05/30 07:07:41;;;;;;;5.47;2.10;;;;;;;;;;8306742;28;20108;-59
2022/05/30 07:11:41;;;;;;;3.45;2.13;;;;;;;;;;8307470;28;20296;-58
2022/05/30 07:15:42;;;;;;;2.42;1.60;;;;;;;;;;8304998;28;20041;-58
2022/05/30 07:19:42;;;;;;;2.00;1.60;;;;;;;;;;8306822;28;20025;-58
2022/05/30 07:23:43;;;;;;;2.15;1.63;;;;;;;;;;8306913;28;20025;-58
2022/05/30 07:27:43;;;;;;;3.08;1.90;;;;;;;;;;8305884;28;20028;-58
2022/05/30 07:31:43;;;;;;;3.53;1.90;;;;;;;;;;8309549;28;20609;-59
2022/05/30 07:35:44;;;;;;;2.87;1.70;;;;;;;;;;8309226;28;20040;-58
2022/05/30 07:39:44;;;;;;;2.47;1.60;;;;;;;;;;8307285;28;20064;-58
2022/05/30 07:43:44;;;;;;;2.70;1.73;;;;;;;;;;8304905;28;20036;-58
2022/05/30 07:47:44;;;;;;;3.28;1.70;;;;;;;;;;8308227;28;20652;-58
2022/05/30 07:51:45;;;;;;;2.65;1.77;;;;;;;;;;8305402;28;20029;-58
2022/05/30 07:55:45;;;;;;;2.70;1.50;;;;;;;;;;8309289;28;20025;-58
2022/05/30 07:59:45;;;;;;;2.70;1.50;;;;;;;;;;8307627;28;20021;-58
2022/05/30 08:03:46;;;;;;;4.15;1.65;;;;;;;;;;8302235;28;20147;-58
2022/05/30 08:07:47;;;;;;;2.97;1.85;;;;;;;;;;8304471;28;20036;-58
2022/05/30 08:11:47;;;;;;;4.45;2.00;;;;;;;;;;8305293;28;20056;-59
2022/05/30 08:15:47;;;;;;;5.90;1.77;;;;;;;;;;8308037;28;20052;-58
2022/05/30 08:19:48;;;;;;;2.95;1.70;;;;;;;;;;8306874;28;20623;-59
2022/05/30 08:23:48;;;;;;;2.72;1.20;;;;;;;;;;8304500;28;20029;-58
2022/05/30 08:27:48;;;;;;;1.63;0.90;;;;;;;;;;8307237;28;20017;-57
2022/05/30 08:31:48;;;;;;;0.80;0.80;;;;;;;;;;8305262;28;20766;-58
2022/05/30 08:36:02;;;;;;;2.03;1.10;;;;;;;;;;8307036;28;20059;-59
2022/05/30 08:44:25;;;;;;;2.97;1.15;;;;;;;;;;8305123;28;20087;-57
2022/05/30 08:48:38;;;;;;;2.85;1.02;;;;;;;;;;8306587;28;20395;-59
2022/05/30 08:53:08;;;;;;;1.88;1.00;;;;;;;;;;8304493;28;20580;-58
2022/05/30 08:57:16;;;;;;;2.78;1.00;;;;;;;;;;8304044;28;20033;-58
2022/05/30 09:01:35;;;;;;;1.27;1.00;;;;;;;;;;8304561;28;20041;-58
2022/05/30 09:05:35;;;;;;;3.97;0.90;;;;;;;;;;8304809;28;20079;-59
2022/05/30 09:09:54;;;;;;;0.80;0.80;;;;;;;;;;8304986;28;20337;-58
2022/05/30 09:13:56;;;;;;;3.00;1.13;;;;;;;;;;8306262;28;20103;-58
2022/05/30 09:17:59;;;;;;;1.88;0.82;;;;;;;;;;8306424;28;20131;-57
2022/05/30 09:22:05;;;;;;;2.78;1.20;;;;;;;;;;8303815;28;20025;-58
2022/05/30 09:26:07;;;;;;;3.33;1.05;;;;;;;;;;8306580;28;20029;-58
2022/05/30 09:30:09;;;;;;;2.00;1.38;;;;;;;;;;8302772;28;20501;-57
2022/05/30 09:34:30;;;;;;;3.25;1.30;;;;;;;;;;8305848;28;20033;-58
2022/05/30 09:38:31;;;;;;;1.25;1.00;;;;;;;;;;8308885;28;20083;-58
2022/05/30 09:42:35;;;;;;;1.75;1.00;;;;;;;;;;8311336;28;20028;-58
2022/05/30 09:46:52;;;;;;;3.15;1.17;;;;;;;;;;8309615;28;20041;-58
2022/05/30 09:50:53;;;;;;;2.28;1.10;;;;;;;;;;8310129;28;20425;-58
2022/05/30 09:54:54;;;;;;;2.35;1.08;;;;;;;;;;8312428;28;20032;-58
2022/05/30 09:58:57;;;;;;;1.55;1.00;;;;;;;;;;8308920;28;20030;-57
2022/05/30 10:02:59;;;;;;;2.08;1.33;;;;;;;;;;8309587;28;20093;-58
2022/05/30 10:07:08;;;;;;;3.15;1.27;;;;;;;;;;8311577;28;20454;-58
2022/05/30 10:11:09;;;;;;;3.95;1.10;;;;;;;;;;8308186;28;20035;-58
2022/05/30 10:15:24;;;;;;;6.57;1.70;;;;;;;;;;8310650;28;20034;-57
2022/05/30 10:19:28;;;;;;;3.45;1.30;;;;;;;;;;8311667;28;20040;-57
2022/05/30 10:28:20;;;;;;;3.42;1.20;;;;;;;;;;8308801;28;20087;-57
2022/05/30 10:32:26;;;;;;;3.58;1.20;;;;;;;;;;8308967;28;20632;-61
2022/05/30 10:36:26;;;;;;;1.15;0.82;;;;;;;;;;8311879;28;20032;-57
2022/05/30 10:40:33;;;;;;;4.65;1.27;;;;;;;;;;8307788;28;20484;-58
2022/05/30 10:44:42;;;;;;;2.47;1.20;;;;;;;;;;8310066;28;20017;-59
2022/05/30 10:49:00;;;;;;;2.85;1.40;;;;;;;;;;8306914;28;20048;-58
2022/05/30 10:53:03;;;;;;;1.80;1.10;;;;;;;;;;8307185;28;20030;-58
2022/05/30 10:57:17;;;;;;;3.25;1.10;;;;;;;;;;8308196;28;20034;-58
2022/05/30 11:01:28;;;;;;;1.85;0.85;;;;;;;;;;8308254;28;20044;-58
2022/05/30 11:05:43;;;;;;;1.95;0.95;;;;;;;;;;8306942;28;20032;-59
2022/05/30 11:09:50;;;;;;;1.60;0.98;;;;;;;;;;8310730;28;20379;-58
2022/05/30 11:13:50;;;;;;;2.78;0.95;;;;;;;;;;8306281;28;20063;-58
2022/05/30 11:18:01;;;;;;;1.80;1.02;;;;;;;;;;8304938;28;20091;-57
2022/05/30 11:22:17;;;;;;;1.23;0.90;;;;;;;;;;8302464;28;20029;-59
2022/05/30 11:26:32;;;;;;;2.92;1.20;;;;;;;;;;8306913;28;20415;-58
2022/05/30 11:30:46;;;;;;;1.98;0.95;;;;;;;;;;8305738;28;20128;-59
2022/05/30 11:35:05;;;;;;;2.53;1.10;;;;;;;;;;8302708;28;20071;-58
2022/05/30 11:39:14;;;;;;;2.92;1.00;;;;;;;;;;8303161;28;20572;-58
2022/05/30 11:43:15;;;;;;;1.88;1.10;;;;;;;;;;8300998;28;20100;-58
2022/05/30 11:47:33;;;;;;;2.53;1.10;;;;;;;;;;8303614;28;20386;-58
2022/05/30 11:51:34;;;;;;;2.63;1.13;;;;;;;;;;8302440;28;20021;-58
2022/05/30 11:55:38;;;;;;;1.73;1.08;;;;;;;;;;8303885;28;20063;-58
2022/05/30 11:59:47;;;;;;;3.13;1.10;;;;;;;;;;8300202;28;20476;-58
2022/05/30 12:04:05;;;;;;;2.97;1.15;;;;;;;;;;8302647;28;20029;-58
2022/05/30 12:08:08;;;;;;;2.33;1.00;;;;;;;;;;8301565;28;20047;-57
2022/05/30 12:12:25;;;;;;;4.53;1.30;;;;;;;;;;8302124;28;20040;-58
2022/05/30 12:16:44;;;;;;;1.48;0.98;;;;;;;;;;8301845;28;20041;-59
2022/05/30 12:25:35;;;;;;;5.15;0.98;;;;;;;;;;8301664;28;20365;-57
2022/05/30 12:29:35;;;;;;;;;;;;;;;;;;8300477;28;20384;-57
2022/05/30 12:33:46;;;;;;;2.13;0.88;;;;;;;;;;8300260;28;20388;-58
2022/05/30 12:37:46;;;;;;;1.77;1.10;;;;;;;;;;8302357;28;20037;-58
2022/05/30 12:41:57;;;;;;;1.73;1.20;;;;;;;;;;8303167;28;20021;-58
2022/05/30 12:45:57;;;;;;;1.23;0.85;;;;;;;;;;8301227;28;20122;-58
2022/05/30 12:50:23;;;;;;;1.17;0.90;;;;;;;;;;8302973;28;20025;-57
2022/05/30 12:54:27;;;;;;;1.27;1.10;;;;;;;;;;8303650;28;20052;-57
2022/05/30 12:58:51;;;;;;;5.85;1.08;;;;;;;;;;8299817;28;20043;-58
2022/05/30 13:02:57;;;;;;;1.30;0.80;;;;;;;;;;8300498;28;20442;-58
2022/05/30 13:06:57;;;;;;;1.98;1.10;;;;;;;;;;8300903;28;20842;-58
2022/05/30 13:10:59;;;;;;;1.17;0.85;;;;;;;;;;8304893;28;20068;-58
2022/05/30 13:14:59;;;;;;;1.33;0.90;;;;;;;;;;8307246;28;20778;-58
2022/05/30 13:19:00;;;;;;;1.65;1.00;;;;;;;;;;8309037;28;20033;-58
2022/05/30 13:23:01;;;;;;;3.28;1.10;;;;;;;;;;8305486;28;20692;-58
2022/05/30 13:27:02;;;;;;;1.65;0.90;;;;;;;;;;8306083;28;20056;-57
2022/05/30 13:31:04;;;;;;;1.83;1.00;;;;;;;;;;8311804;28;20041;-59
2022/05/30 13:35:10;;;;;;;2.97;0.93;;;;;;;;;;8312159;28;20064;-58
2022/05/30 13:39:10;;;;;;;1.88;1.00;;;;;;;;;;8312615;28;20056;-58
2022/05/30 13:43:14;;;;;;;1.73;0.80;;;;;;;;;;8311393;28;20036;-58
2022/05/30 13:47:16;;;;;;;1.35;1.00;;;;;;;;;;8310924;28;20025;-62
2022/05/30 13:51:26;;;;;;;1.65;1.00;;;;;;;;;;8308727;28;20110;-57
2022/05/30 13:55:26;;;;;;;0.90;0.82;;;;;;;;;;8309963;28;20112;-58
2022/05/30 13:59:49;;;;;;;3.47;0.83;;;;;;;;;;8307003;28;20029;-59
2022/05/30 14:03:51;;;;;;;1.60;0.93;;;;;;;;;;8305746;28;20033;-58
2022/05/30 14:07:52;;;;;;;1.42;0.80;;;;;;;;;;8308604;28;20508;-59
2022/05/30 14:11:54;;;;;;;1.73;0.82;;;;;;;;;;8308454;28;20021;-59
2022/05/30 14:15:56;;;;;;;0.85;0.80;;;;;;;;;;8306719;28;20977;-59
2022/05/30 14:20:12;;;;;;;0.73;0.73;;;;;;;;;;8306633;28;20029;-59
2022/05/30 14:24:22;;;;;;;1.30;0.70;;;;;;;;;;8306534;28;20029;-58
2022/05/30 14:28:27;;;;;;;1.80;0.77;;;;;;;;;;8309822;28;20456;-59
2022/05/30 14:32:29;;;;;;;1.17;0.80;;;;;;;;;;8306691;28;20077;-58
2022/05/30 14:36:43;;;;;;;2.73;0.90;;;;;;;;;;8306387;28;20745;-59
2022/05/30 14:40:50;;;;;;;1.00;0.80;;;;;;;;;;8308676;28;20338;-59
2022/05/30 14:44:52;;;;;;;0.90;0.77;;;;;;;;;;8305119;28;20090;-58
2022/05/30 14:48:54;;;;;;;1.80;0.90;;;;;;;;;;8303551;28;20072;-59
2022/05/30 14:52:58;;;;;;;0.73;0.73;;;;;;;;;;8308608;28;20477;-58
2022/05/30 14:56:59;;;;;;;0.90;0.80;;;;;;;;;;8304195;28;20144;-58
2022/05/30 15:01:01;;;;;;;1.13;0.90;;;;;;;;;;8303918;28;20040;-59
2022/05/30 15:05:03;;;;;;;1.15;0.80;;;;;;;;;;8306340;28;20033;-58
2022/05/30 15:09:04;;;;;;;0.88;0.80;;;;;;;;;;8305056;28;20032;-59
2022/05/30 15:13:04;;;;;;;1.10;0.70;;;;;;;;;;8307431;28;20028;-58
2022/05/30 15:17:05;;;;;;;1.50;0.77;;;;;;;;;;8305287;28;20577;-59
2022/05/30 15:21:06;;;;;;;1.25;0.80;;;;;;;;;;8304328;28;20122;-58
2022/05/30 15:25:07;;;;;;;0.98;0.70;;;;;;;;;;8304796;28;21222;-59
2022/05/30 15:29:07;;;;;;;1.48;0.77;;;;;;;;;;8301962;28;20028;-58
2022/05/30 15:33:09;;;;;;;0.70;0.70;;;;;;;;;;8301713;28;20037;-59
2022/05/30 15:37:09;;;;;;;1.88;1.10;;;;;;;;;;8304949;28;20634;-59
2022/05/30 15:41:09;;;;;;;3.08;0.88;;;;;;;;;;8303341;28;20132;-60
2022/05/30 15:45:09;;;;;;;1.05;0.90;;;;;;;;;;8304521;28;20032;-59
2022/05/30 15:49:11;;;;;;;2.65;0.93;;;;;;;;;;8304345;28;20497;-59
2022/05/30 15:57:36;;;;;;;1.02;0.88;;;;;;;;;;8304921;28;20118;-59
2022/05/30 16:01:37;;;;;;;2.25;0.90;;;;;;;;;;8302933;28;20119;-60
2022/05/30 16:05:37;;;;;;;1.90;0.80;;;;;;;;;;8304487;28;20095;-60
2022/05/30 16:09:39;;;;;;;2.78;1.15;;;;;;;;;;8302436;28;20633;-58
2022/05/30 16:13:40;;;;;;;2.60;0.90;;;;;;;;;;8301069;28;20147;-59
2022/05/30 16:17:40;;;;;;;2.03;0.95;;;;;;;;;;8303336;28;20034;-59
2022/05/30 16:21:41;;;;;;;0.85;0.80;;;;;;;;;;8304010;28;20707;-58
2022/05/30 16:25:41;;;;;;;0.93;0.90;;;;;;;;;;8304285;28;20083;-60
2022/05/30 16:29:42;;;;;;;1.20;1.08;;;;;;;;;;8304137;28;20037;-59
2022/05/30 16:33:42;;;;;;;2.13;1.00;;;;;;;;;;8303700;28;20069;-58
2022/05/30 16:37:43;;;;;;;3.30;1.00;;;;;;;;;;8304468;28;20602;-59
2022/05/30 16:41:43;;;;;;;1.30;0.90;;;;;;;;;;8303841;28;20277;-58
2022/05/30 16:45:45;;;;;;;1.00;0.80;;;;;;;;;;8302902;28;20434;-59
2022/05/30 16:49:45;;;;;;;2.47;1.00;;;;;;;;;;8308603;28;20464;-59
2022/05/30 16:53:46;;;;;;;1.73;0.90;;;;;;;;;;8310429;28;20136;-58
2022/05/30 16:57:47;;;;;;;1.17;0.90;;;;;;;;;;8306942;28;20036;-59
2022/05/30 17:01:47;;;;;;;1.42;0.90;;;;;;;;;;8311388;28;20048;-58
2022/05/30 17:05:49;;;;;;;2.47;0.77;;;;;;;;;;8312117;28;20037;-58
2022/05/30 17:09:50;;;;;;;1.00;0.80;;;;;;;;;;8311475;28;20670;-59
2022/05/30 17:13:50;;;;;;;0.90;0.70;;;;;;;;;;8310867;28;20031;-59
2022/05/30 17:17:51;;;;;;;1.27;1.10;;;;;;;;;;8308351;28;20512;-59
2022/05/30 17:21:51;;;;;;;1.63;0.90;;;;;;;;;;8308341;28;20364;-58
2022/05/30 17:25:53;;;;;;;1.52;0.88;;;;;;;;;;8309632;28;20033;-58
2022/05/30 17:29:53;;;;;;;0.80;0.80;;;;;;;;;;8308153;28;20021;-59
2022/05/30 17:33:53;;;;;;;0.98;0.80;;;;;;;;;;8308563;28;20136;-59
2022/05/30 17:37:54;;;;;;;1.60;0.80;;;;;;;;;;8306799;28;20031;-59
2022/05/30 17:41:54;;;;;;;2.53;1.00;;;;;;;;;;8310137;28;20036;-58
2022/05/30 17:46:08;;;;;;;0.90;0.85;;;;;;;;;;8309638;28;20106;-60
2022/05/30 17:50:08;;;;;;;;;;;;;;;;;;8310684;28;20026;-59
2022/05/30 17:54:08;;;;;;;1.42;1.10;;;;;;;;;;8309080;28;19919;-59
2022/05/30 17:58:09;;;;;;;1.45;0.82;;;;;;;;;;8308364;28;20029;-58
2022/05/30 18:02:09;;;;;;;1.00;0.82;;;;;;;;;;8309245;28;20037;-59
2022/05/30 18:06:11;;;;;;;2.20;1.10;;;;;;;;;;8310811;28;20021;-59
2022/05/30 18:10:44;;;;;;;1.23;0.90;;;;;;;;;;8312008;28;20042;-58
2022/05/30 18:14:47;;;;;;;1.88;0.80;;;;;;;;;;8287887;28;20041;-58
2022/05/30 18:23:30;;;;;;;1.48;0.90;;;;;;;;;;8307723;28;20060;-58
2022/05/30 18:27:30;;;;;;;0.85;0.85;;;;;;;;;;8308087;28;20795;-58
2022/05/30 18:31:46;;;;;;;3.00;1.13;;;;;;;;;;8307464;28;20099;-58
2022/05/30 18:35:47;;;;;;;1.17;1.05;;;;;;;;;;8309694;28;20013;-58
2022/05/30 18:39:57;;;;;;;1.17;1.00;;;;;;;;;;8307491;28;20036;-58
2022/05/30 18:43:59;;;;;;;1.90;1.10;;;;;;;;;;8307281;28;20021;-58
2022/05/30 18:48:04;;;;;;;5.57;1.10;;;;;;;;;;8307526;28;20098;-58
2022/05/30 18:52:05;;;;;;;5.03;0.90;;;;;;;;;;8307727;28;20026;-59
2022/05/30 18:56:10;;;;;;;2.25;1.05;;;;;;;;;;8306686;28;20035;-59
2022/05/30 19:00:14;;;;;;;1.48;0.93;;;;;;;;;;8304659;28;20041;-59
2022/05/30 19:04:15;;;;;;;0.82;0.82;;;;;;;;;;8305186;28;20056;-58
2022/05/30 19:08:15;;;;;;;2.47;1.10;;;;;;;;;;8306927;28;20556;-58
2022/05/30 19:12:22;;;;;;;1.30;1.00;;;;;;;;;;8306992;28;20033;-58
2022/05/30 19:20:41;;;;;;;2.15;1.10;;;;;;;;;;8304223;28;20676;-59
2022/05/30 19:24:41;;;;;;;1.63;1.00;;;;;;;;;;8306043;28;20041;-59
2022/05/30 19:33:19;;;;;;;1.10;1.00;;;;;;;;;;8324186;28;20028;-58
2022/05/30 19:37:19;;;;;;;2.83;0.88;;;;;;;;;;8311951;28;20685;-59
2022/05/30 19:41:20;;;;;;;3.80;1.30;;;;;;;;;;8305011;28;20029;-60
2022/05/30 19:45:20;;;;;;;2.95;1.30;;;;;;;;;;8304104;28;20040;-59
2022/05/30 19:49:21;;;;;;;2.08;1.00;;;;;;;;;;8306904;28;20025;-59
2022/05/30 19:53:21;;;;;;;3.50;1.10;;;;;;;;;;8308920;28;20033;-57
2022/05/30 19:57:24;;;;;;;1.73;1.13;;;;;;;;;;8302491;28;20026;-58
2022/05/30 20:01:25;;;;;;;2.25;1.10;;;;;;;;;;8305006;28;20526;-58
2022/05/30 20:05:27;;;;;;;1.80;1.15;;;;;;;;;;8302487;28;20520;-57
2022/05/30 20:09:27;;;;;;;1.98;0.90;;;;;;;;;;8305582;28;20090;-59
2022/05/30 20:13:27;;;;;;;2.38;1.30;;;;;;;;;;8303597;28;20021;-58
2022/05/30 20:17:28;;;;;;;1.47;1.10;;;;;;;;;;8303509;28;20038;-58
2022/05/30 20:21:28;;;;;;;2.40;1.10;;;;;;;;;;8304423;28;20298;-58
2022/05/30 20:25:29;;;;;;;2.28;0.90;;;;;;;;;;8305986;28;20272;-58
2022/05/30 20:29:29;;;;;;;2.08;1.27;;;;;;;;;;8306297;28;20087;-59
2022/05/30 20:33:29;;;;;;;2.00;1.10;;;;;;;;;;8301896;28;20068;-57
2022/05/30 20:37:30;;;;;;;2.75;1.25;;;;;;;;;;8302059;28;20063;-58
2022/05/30 20:45:51;;;;;;;3.53;0.98;;;;;;;;;;8302600;28;20037;-60
2022/05/30 20:49:52;;;;;;;2.47;1.13;;;;;;;;;;8304536;28;20056;-58
2022/05/30 20:53:52;;;;;;;1.50;1.02;;;;;;;;;;8304007;28;20059;-58
2022/05/30 20:57:52;;;;;;;2.28;1.20;;;;;;;;;;8304292;28;20068;-58
2022/05/30 21:01:53;;;;;;;2.38;1.20;;;;;;;;;;8306184;28;20794;-59
2022/05/30 21:05:56;;;;;;;2.40;1.10;;;;;;;;;;8306824;28;20565;-59
2022/05/30 21:09:56;;;;;;;2.17;0.98;;;;;;;;;;8302202;28;20662;-57
2022/05/30 21:13:57;;;;;;;2.20;1.20;;;;;;;;;;8305570;28;20115;-59
2022/05/30 21:18:12;;;;;;;1.38;1.02;;;;;;;;;;8305525;28;20568;-57
2022/05/30 21:22:12;;;;;;;1.58;1.10;;;;;;;;;;8301546;28;20334;-58
2022/05/30 21:26:13;;;;;;;1.83;1.20;;;;;;;;;;8304012;28;20032;-59
2022/05/30 21:30:14;;;;;;;1.55;1.00;;;;;;;;;;8303775;28;20401;-58
2022/05/30 21:34:16;;;;;;;1.23;1.20;;;;;;;;;;8306622;28;20155;-58
2022/05/30 21:38:16;;;;;;;3.88;1.40;;;;;;;;;;8308130;28;20036;-58
2022/05/30 21:42:17;;;;;;;2.13;1.27;;;;;;;;;;8309023;28;20017;-58
2022/05/30 21:46:17;;;;;;;4.40;1.25;;;;;;;;;;8309700;28;20029;-59
2022/05/30 21:50:18;;;;;;;1.67;1.23;;;;;;;;;;8310693;28;20036;-58
2022/05/30 21:54:19;;;;;;;2.67;1.30;;;;;;;;;;8311345;28;20124;-58
2022/05/30 21:58:19;;;;;;;2.73;1.40;;;;;;;;;;8307778;28;20430;-58
2022/05/30 22:02:19;;;;;;;2.20;1.33;;;;;;;;;;8308582;28;20038;-58
2022/05/30 22:06:20;;;;;;;3.55;1.48;;;;;;;;;;8310722;28;20999;-59
2022/05/30 22:10:23;;;;;;;1.38;1.20;;;;;;;;;;8309659;28;20059;-57
2022/05/30 22:14:23;;;;;;;2.60;1.40;;;;;;;;;;8307485;28;20032;-57
2022/05/30 22:18:23;;;;;;;1.95;1.00;;;;;;;;;;8304183;28;20218;-58
2022/05/30 22:22:24;;;;;;;1.17;1.08;;;;;;;;;;8306070;28;20126;-57
2022/05/30 22:26:25;;;;;;;1.45;1.08;;;;;;;;;;8307889;28;20035;-58
2022/05/30 22:30:27;;;;;;;1.20;1.10;;;;;;;;;;8309711;28;20105;-58
2022/05/30 22:34:27;;;;;;;1.65;1.05;;;;;;;;;;8307944;28;20503;-57
2022/05/30 22:38:28;;;;;;;1.23;1.13;;;;;;;;;;8311467;28;20033;-57
2022/05/30 22:42:28;;;;;;;2.38;1.13;;;;;;;;;;8310079;28;20263;-59
2022/05/30 22:46:28;;;;;;;1.90;1.20;;;;;;;;;;8307128;28;20048;-58
2022/05/30 22:50:30;;;;;;;1.77;1.17;;;;;;;;;;8308589;28;20037;-57
2022/05/30 22:54:30;;;;;;;2.38;1.20;;;;;;;;;;8311229;28;20025;-57
2022/05/30 22:58:31;;;;;;;1.33;1.10;;;;;;;;;;8308200;28;20098;-58
2022/05/30 23:02:31;;;;;;;1.65;1.15;;;;;;;;;;8309814;28;20026;-58
2022/05/30 23:06:31;;;;;;;3.22;1.10;;;;;;;;;;8307793;28;20659;-58
2022/05/30 23:10:36;;;;;;;1.30;1.10;;;;;;;;;;8310026;28;20033;-58
2022/05/30 23:14:36;;;;;;;2.97;1.02;;;;;;;;;;8308900;28;20735;-57
2022/05/30 23:18:38;;;;;;;1.95;1.30;;;;;;;;;;8308677;28;20068;-59
2022/05/30 23:22:40;;;;;;;2.20;1.20;;;;;;;;;;8307119;28;20174;-58
2022/05/30 23:26:41;;;;;;;3.42;1.10;;;;;;;;;;8308824;28;20036;-58
2022/05/30 23:30:42;;;;;;;1.20;1.10;;;;;;;;;;8308815;28;20045;-58
2022/05/30 23:34:42;;;;;;;3.03;1.30;;;;;;;;;;8309312;28;20029;-59
2022/05/30 23:38:43;;;;;;;1.38;1.20;;;;;;;;;;8308002;28;20031;-58
2022/05/30 23:47:02;;;;;;;2.25;1.30;;;;;;;;;;8309910;28;20136;-57
2022/05/30 23:51:05;;;;;;;1.55;1.30;;;;;;;;;;8306319;28;20749;-59
2022/05/30 23:55:05;;;;;;;5.60;1.75;;;;;;;;;;8308340;28;20040;-59
2022/05/30 23:59:06;;;;;;;1.55;1.23;;;;;;;;;;8304458;28;20030;-57
